createdAt,value
2023-02-17T00:00:17.125Z,99552.75
2023-02-17T00:02:45.487Z,99547.96
2023-02-17T00:05:14.117Z,99553.15
2023-02-17T00:07:42.237Z,99552.21
2023-02-17T00:10:11.832Z,99550.23
2023-02-17T00:12:40.139Z,99548.73
2023-02-17T00:15:08.786Z,99548.98
2023-02-17T00:17:37.756Z,99544.66
2023-02-17T00:20:06.749Z,99544.30
2023-02-17T00:22:36.088Z,99545.27
2023-02-17T00:25:05.107Z,99549.39
2023-02-17T00:27:33.715Z,99549.98
2023-02-17T00:30:01.981Z,99547.11
2023-02-17T00:32:30.219Z,99544.73
2023-02-17T00:34:58.630Z,99542.55
2023-02-17T00:37:27.258Z,99539.64
2023-02-17T00:39:56.669Z,99537.44
2023-02-17T00:42:25.300Z,99535.84
2023-02-17T00:44:53.800Z,99534.36
2023-02-17T00:47:21.997Z,99536.96
2023-02-17T00:49:50.189Z,99535.48
2023-02-17T00:52:18.761Z,99530.20
2023-02-17T00:54:47.299Z,99526.41
2023-02-17T00:57:15.601Z,99525.14
2023-02-17T00:59:44.198Z,99520.98
2023-02-17T01:02:12.308Z,99518.80
2023-02-17T01:04:41.284Z,99521.02
2023-02-17T01:08:13.902Z,99513.36
2023-02-17T01:10:45.504Z,99520.08
2023-02-17T01:13:15.317Z,99517.23
2023-02-17T01:15:47.921Z,99511.02
2023-02-17T01:18:17.071Z,99507.45
2023-02-17T01:20:45.486Z,99506.82
2023-02-17T01:23:19.460Z,99510.05
2023-02-17T01:25:47.864Z,99510.02
2023-02-17T01:28:19.608Z,99514.20
2023-02-17T01:30:48.586Z,99509.79
2023-02-17T01:33:17.049Z,99513.67
2023-02-17T01:35:46.573Z,99506.20
2023-02-17T01:38:14.651Z,99510.35
2023-02-17T01:40:47.729Z,99516.77
2023-02-17T01:43:17.555Z,99511.27
2023-02-17T01:46:06.603Z,99509.27
2023-02-17T01:48:38.269Z,99509.73
2023-02-17T01:51:08.766Z,99512.00
2023-02-17T01:53:40.134Z,99507.80
2023-02-17T01:56:08.386Z,99508.42
2023-02-17T01:58:40.355Z,99508.80
2023-02-17T02:01:08.695Z,99506.38
2023-02-17T02:03:37.568Z,99507.16
2023-02-17T02:06:08.559Z,99505.43
2023-02-17T02:08:48.749Z,99502.38
2023-02-17T02:11:16.931Z,99502.71
2023-02-17T02:13:49.963Z,99508.53
2023-02-17T02:16:52.506Z,99509.45
2023-02-17T02:19:39.427Z,99510.84
2023-02-17T02:22:27.250Z,99514.41
2023-02-17T02:25:14.009Z,99507.48
2023-02-17T02:28:07.389Z,99505.26
2023-02-17T02:31:02.256Z,99506.64
2023-02-17T02:33:50.325Z,99508.17
2023-02-17T02:36:30.690Z,99509.84
2023-02-17T02:39:12.885Z,99511.45
2023-02-17T02:41:44.331Z,99510.14
2023-02-17T02:44:14.583Z,99517.11
2023-02-17T02:46:42.810Z,99521.63
2023-02-17T02:49:11.362Z,99522.82
2023-02-17T02:52:02.204Z,99526.17
2023-02-17T02:54:48.945Z,99529.31
2023-02-17T02:57:23.184Z,99532.83
2023-02-17T03:00:01.914Z,99533.97
2023-02-17T03:02:44.154Z,99535.91
2023-02-17T03:05:16.420Z,99529.73
2023-02-17T03:08:06.500Z,99531.18
2023-02-17T03:10:36.013Z,99530.91
2023-02-17T03:13:04.493Z,99537.47
2023-02-17T03:15:33.841Z,99536.66
2023-02-17T03:18:04.318Z,99536.27
2023-02-17T03:20:36.182Z,99543.18
2023-02-17T03:23:06.994Z,99542.23
2023-02-17T03:25:36.783Z,99545.90
2023-02-17T03:28:05.491Z,99545.84
2023-02-17T03:30:35.237Z,99544.94
2023-02-17T03:33:03.693Z,99539.88
2023-02-17T03:35:32.440Z,99543.41
2023-02-17T03:38:00.603Z,99540.12
2023-02-17T03:40:28.997Z,99541.42
2023-02-17T03:42:57.795Z,99544.59
2023-02-17T03:45:26.063Z,99543.05
2023-02-17T03:47:57.912Z,99540.33
2023-02-17T03:50:26.194Z,99536.59
2023-02-17T03:52:54.522Z,99533.98
2023-02-17T03:55:22.684Z,99541.25
2023-02-17T03:57:50.900Z,99539.93
2023-02-17T04:00:19.363Z,99542.77
2023-02-17T04:02:48.274Z,99540.07
2023-02-17T04:05:16.427Z,99534.30
2023-02-17T04:07:44.661Z,99539.40
2023-02-17T04:10:13.302Z,99538.37
2023-02-17T04:12:42.573Z,99540.36
2023-02-17T04:15:15.515Z,99545.48
2023-02-17T04:17:44.048Z,99547.69
2023-02-17T04:20:12.707Z,99542.43
2023-02-17T04:22:41.083Z,99543.59
2023-02-17T04:25:09.552Z,99542.54
2023-02-17T04:27:38.941Z,99543.48
2023-02-17T04:30:07.706Z,99538.41
2023-02-17T04:32:37.174Z,99540.39
2023-02-17T04:35:05.960Z,99543.15
2023-02-17T04:37:34.104Z,99548.36
2023-02-17T04:40:02.485Z,99548.90
2023-02-17T04:42:30.955Z,99546.33
2023-02-17T04:44:59.426Z,99550.70
2023-02-17T04:47:28.261Z,99551.23
2023-02-17T04:49:56.408Z,99556.42
2023-02-17T04:52:24.492Z,99556.39
2023-02-17T04:54:52.652Z,99558.59
2023-02-17T04:57:20.760Z,99558.78
2023-02-17T04:59:49.146Z,99561.54
2023-02-17T05:02:17.364Z,99562.60
2023-02-17T05:04:46.093Z,99569.39
2023-02-17T05:07:14.440Z,99567.30
2023-02-17T05:09:46.761Z,99566.61
2023-02-17T05:12:15.131Z,99571.75
2023-02-17T05:14:43.242Z,99575.98
2023-02-17T05:17:13.243Z,99573.85
2023-02-17T05:19:41.395Z,99572.79
2023-02-17T05:22:09.537Z,99572.27
2023-02-17T05:24:39.056Z,99571.72
2023-02-17T05:27:09.633Z,99577.48
2023-02-17T05:29:38.651Z,99581.23
2023-02-17T05:32:07.162Z,99582.14
2023-02-17T05:34:36.414Z,99586.02
2023-02-17T05:37:04.612Z,99590.21
2023-02-17T05:39:32.749Z,99595.52
2023-02-17T05:42:00.859Z,99589.77
2023-02-17T05:44:29.496Z,99602.59
2023-02-17T05:46:57.724Z,99603.30
2023-02-17T05:49:26.334Z,99604.39
2023-02-17T05:51:54.755Z,99605.38
2023-02-17T05:54:22.921Z,99602.69
2023-02-17T05:56:51.347Z,99600.12
2023-02-17T05:59:19.826Z,99601.41
2023-02-17T06:01:47.897Z,99600.58
2023-02-17T06:04:16.457Z,99603.51
2023-02-17T06:06:45.496Z,99604.17
2023-02-17T06:09:13.715Z,99606.27
2023-02-17T06:11:42.525Z,99613.52
2023-02-17T06:14:10.878Z,99614.82
2023-02-17T06:16:42.415Z,99617.31
2023-02-17T06:19:10.532Z,99621.36
2023-02-17T06:21:39.044Z,99617.60
2023-02-17T06:24:07.364Z,99621.88
2023-02-17T06:26:36.554Z,99624.03
2023-02-17T06:29:06.037Z,99625.10
2023-02-17T06:31:35.066Z,99631.08
2023-02-17T06:34:05.425Z,99634.44
2023-02-17T06:36:34.718Z,99635.13
2023-02-17T06:39:03.236Z,99630.70
2023-02-17T06:41:31.421Z,99636.98
2023-02-17T06:43:59.499Z,99637.13
2023-02-17T06:46:27.676Z,99639.57
2023-02-17T06:48:55.822Z,99636.33
2023-02-17T06:51:24.235Z,99638.94
2023-02-17T06:53:52.312Z,99639.67
2023-02-17T06:56:21.244Z,99643.17
2023-02-17T06:58:49.525Z,99646.88
2023-02-17T07:01:19.321Z,99647.85
2023-02-17T07:03:47.894Z,99649.69
2023-02-17T07:06:16.668Z,99649.77
2023-02-17T07:08:45.360Z,99650.09
2023-02-17T07:11:14.120Z,99650.98
2023-02-17T07:13:43.165Z,99654.66
2023-02-17T07:16:12.330Z,99655.56
2023-02-17T07:18:40.596Z,99655.89
2023-02-17T07:21:09.095Z,99657.65
2023-02-17T07:23:38.008Z,99659.61
2023-02-17T07:26:09.178Z,99661.84
2023-02-17T07:28:37.988Z,99658.83
2023-02-17T07:31:09.863Z,99663.27
2023-02-17T07:33:38.476Z,99662.39
2023-02-17T07:36:15.793Z,99665.77
2023-02-17T07:38:43.887Z,99666.99
2023-02-17T07:41:17.006Z,99669.16
2023-02-17T07:43:45.415Z,99671.89
2023-02-17T07:46:13.744Z,99677.16
2023-02-17T07:48:41.922Z,99675.09
2023-02-17T07:51:12.052Z,99676.55
2023-02-17T07:53:40.198Z,99681.13
2023-02-17T07:56:12.760Z,99678.09
2023-02-17T07:58:41.938Z,99683.08
2023-02-17T08:01:11.953Z,99682.94
2023-02-17T08:03:40.441Z,99687.38
2023-02-17T08:06:16.528Z,99681.59
2023-02-17T08:09:03.158Z,99688.77
2023-02-17T08:11:51.227Z,99688.10
2023-02-17T08:14:21.157Z,99690.38
2023-02-17T08:16:50.818Z,99690.02
2023-02-17T08:19:18.928Z,99685.64
2023-02-17T08:21:47.054Z,99691.48
2023-02-17T08:24:16.382Z,99696.65
2023-02-17T08:26:44.852Z,99697.92
2023-02-17T08:29:13.089Z,99703.76
2023-02-17T08:31:41.452Z,99701.63
2023-02-17T08:34:10.777Z,99707.81
2023-02-17T08:36:39.982Z,99705.05
2023-02-17T08:39:14.579Z,99709.94
2023-02-17T08:41:43.268Z,99707.83
2023-02-17T08:44:14.338Z,99710.04
2023-02-17T08:46:42.718Z,99708.98
2023-02-17T08:49:11.563Z,99712.23
2023-02-17T08:51:39.949Z,99713.68
2023-02-17T08:54:08.313Z,99710.46
2023-02-17T08:56:39.984Z,99708.00
2023-02-17T08:59:09.584Z,99712.36
2023-02-17T09:01:37.983Z,99715.05
2023-02-17T09:04:07.671Z,99721.11
2023-02-17T09:06:59.039Z,99726.58
2023-02-17T09:09:27.436Z,99725.44
2023-02-17T09:11:58.366Z,99731.77
2023-02-17T09:14:27.758Z,99726.05
2023-02-17T09:16:56.164Z,99724.88
2023-02-17T09:19:25.285Z,99731.23
2023-02-17T09:21:53.494Z,99731.23
2023-02-17T09:24:24.975Z,99734.83
2023-02-17T09:26:54.161Z,99735.66
2023-02-17T09:29:22.460Z,99734.50
2023-02-17T09:31:50.646Z,99729.27
2023-02-17T09:34:19.120Z,99731.09
2023-02-17T09:36:47.384Z,99728.14
2023-02-17T09:39:16.030Z,99729.79
2023-02-17T09:41:49.984Z,99732.27
2023-02-17T09:44:35.512Z,99731.41
2023-02-17T09:47:26.153Z,99732.57
2023-02-17T09:49:57.171Z,99726.84
2023-02-17T09:52:44.358Z,99726.15
2023-02-17T09:55:17.475Z,99722.11
2023-02-17T09:58:06.741Z,99724.52
2023-02-17T10:00:44.717Z,99725.98
2023-02-17T10:03:19.715Z,99729.50
2023-02-17T10:05:56.468Z,99726.79
2023-02-17T10:08:27.997Z,99724.29
2023-02-17T10:11:08.741Z,99723.51
2023-02-17T10:13:38.015Z,99720.32
2023-02-17T10:16:09.614Z,99721.08
2023-02-17T10:18:41.680Z,99721.87
2023-02-17T10:21:19.575Z,99723.93
2023-02-17T10:23:48.114Z,99720.30
2023-02-17T10:26:48.458Z,99719.39
2023-02-17T10:29:37.633Z,99717.89
2023-02-17T10:32:20.018Z,99718.33
2023-02-17T10:35:14.503Z,99717.02
2023-02-17T10:37:50.456Z,99719.94
2023-02-17T10:40:26.967Z,99723.06
2023-02-17T10:43:04.305Z,99726.27
2023-02-17T10:45:41.089Z,99724.80
2023-02-17T10:48:12.562Z,99724.20
2023-02-17T10:50:44.388Z,99722.88
2023-02-17T10:53:21.385Z,99723.51
2023-02-17T10:55:59.069Z,99724.02
2023-02-17T10:58:46.669Z,99721.89
2023-02-17T11:01:15.950Z,99720.59
2023-02-17T11:03:44.163Z,99719.02
2023-02-17T11:06:17.999Z,99713.77
2023-02-17T11:08:51.296Z,99712.63
2023-02-17T11:11:31.042Z,99717.36
2023-02-17T11:14:19.669Z,99718.20
2023-02-17T11:16:53.850Z,99720.60
2023-02-17T11:19:29.600Z,99722.43
2023-02-17T11:21:58.845Z,99718.89
2023-02-17T11:24:27.855Z,99719.28
2023-02-17T11:27:04.836Z,99715.76
2023-02-17T11:29:34.336Z,99715.88
2023-02-17T11:32:08.965Z,99719.30
2023-02-17T11:34:38.882Z,99721.72
2023-02-17T11:37:10.173Z,99722.12
2023-02-17T11:39:43.135Z,99722.33
2023-02-17T11:42:29.344Z,99717.10
2023-02-17T11:45:18.235Z,99713.38
2023-02-17T11:48:07.015Z,99708.84
2023-02-17T11:50:47.599Z,99704.61
2023-02-17T11:53:37.477Z,99703.70
2023-02-17T11:56:17.109Z,99707.54
2023-02-17T11:59:27.236Z,99710.14
2023-02-17T12:02:44.510Z,99710.82
2023-02-17T13:06:32.494Z,99705.38
2023-02-17T13:09:26.210Z,99709.30
2023-02-17T13:11:54.350Z,99707.41
2023-02-17T13:14:26.597Z,99702.27
2023-02-17T13:16:55.546Z,99699.54
2023-02-17T13:19:31.002Z,99702.25
2023-02-17T13:22:02.460Z,99698.46
2023-02-17T13:24:39.520Z,99697.20
2023-02-17T13:27:32.588Z,99699.20
2023-02-17T13:30:11.161Z,99695.20
2023-02-17T13:32:40.048Z,99695.95
2023-02-17T13:35:29.702Z,99698.77
2023-02-17T13:38:01.200Z,99693.52
2023-02-17T13:40:29.888Z,99694.98
2023-02-17T13:43:11.573Z,99689.38
2023-02-17T13:45:44.277Z,99689.83
2023-02-17T13:48:29.906Z,99690.11
2023-02-17T13:50:59.664Z,99693.87
2023-02-17T13:53:41.257Z,99688.94
2023-02-17T13:56:12.571Z,99699.23
2023-02-17T13:58:41.710Z,99697.71
2023-02-17T14:01:17.685Z,99705.67
2023-02-17T14:03:51.853Z,99703.60
2023-02-17T14:06:28.290Z,99707.12
2023-02-17T14:08:56.594Z,99705.27
2023-02-17T14:11:30.404Z,99703.77
2023-02-17T14:14:04.749Z,99694.52
2023-02-17T14:16:35.351Z,99693.68
2023-02-17T14:19:08.620Z,99698.89
2023-02-17T14:21:38.811Z,99696.51
2023-02-17T14:24:09.780Z,99695.64
2023-02-17T14:26:47.503Z,99689.52
2023-02-17T14:29:15.805Z,99690.53
2023-02-17T14:31:49.563Z,99690.60
2023-02-17T14:34:21.181Z,99690.09
2023-02-17T14:36:50.887Z,99689.60
2023-02-17T14:39:20.295Z,99690.88
2023-02-17T14:41:49.452Z,99693.70
2023-02-17T14:44:17.683Z,99698.64
2023-02-17T14:46:49.772Z,99705.52
2023-02-17T14:49:18.088Z,99700.39
2023-02-17T14:51:46.350Z,99693.33
2023-02-17T14:54:16.656Z,99698.01
2023-02-17T14:57:07.235Z,99695.42
2023-02-17T14:59:37.335Z,99692.95
2023-02-17T15:02:16.714Z,99692.26
2023-02-17T15:04:46.410Z,99693.41
2023-02-17T15:07:16.409Z,99696.13
2023-02-17T15:09:47.398Z,99699.66
2023-02-17T15:12:21.310Z,99699.39
2023-02-17T15:14:49.573Z,99697.29
2023-02-17T15:17:17.681Z,99700.08
2023-02-17T15:19:45.948Z,99695.92
2023-02-17T15:22:16.524Z,99701.30
2023-02-17T15:24:50.270Z,99698.66
2023-02-17T15:27:19.462Z,99705.08
2023-02-17T15:29:48.133Z,99701.98
2023-02-17T15:32:20.002Z,99698.98
2023-02-17T15:34:49.704Z,99697.31
2023-02-17T15:37:18.891Z,99698.45
2023-02-17T15:39:47.037Z,99699.33
2023-02-17T15:42:16.149Z,99700.16
2023-02-17T15:44:46.460Z,99697.35
2023-02-17T15:47:17.520Z,99697.79
2023-02-17T15:49:45.793Z,99697.23
2023-02-17T15:52:15.695Z,99692.38
2023-02-17T15:54:44.516Z,99691.12
2023-02-17T15:57:22.543Z,99689.58
2023-02-17T15:59:55.057Z,99684.45
2023-02-17T16:02:25.342Z,99687.10
2023-02-17T16:04:54.216Z,99683.90
2023-02-17T16:07:23.104Z,99686.96
2023-02-17T16:09:52.587Z,99685.95
2023-02-17T16:12:26.719Z,99682.16
2023-02-17T16:14:55.871Z,99686.13
2023-02-17T16:17:28.138Z,99682.09
2023-02-17T16:19:56.466Z,99682.70
2023-02-17T16:22:24.967Z,99691.91
2023-02-17T16:25:13.923Z,99692.80
2023-02-17T16:27:42.985Z,99693.52
2023-02-17T16:30:33.448Z,99696.52
2023-02-17T16:33:04.161Z,99696.59
2023-02-17T16:35:32.450Z,99695.00
2023-02-17T16:38:01.674Z,99697.02
2023-02-17T16:40:31.321Z,99698.40
2023-02-17T16:42:59.921Z,99700.02
2023-02-17T16:45:29.791Z,99700.48
2023-02-17T16:48:00.131Z,99703.63
2023-02-17T16:50:32.736Z,99700.98
2023-02-17T16:53:05.495Z,99694.35
2023-02-17T16:55:34.960Z,99699.42
2023-02-17T16:58:03.781Z,99699.39
2023-02-17T17:00:32.663Z,99696.16
2023-02-17T17:03:00.749Z,99696.29
2023-02-17T17:05:29.444Z,99695.38
2023-02-17T17:07:57.807Z,99692.54
2023-02-17T17:10:30.654Z,99686.55
2023-02-17T17:13:00.365Z,99687.91
2023-02-17T17:15:29.166Z,99684.50
2023-02-17T17:18:00.291Z,99678.78
2023-02-17T17:20:35.614Z,99671.86
2023-02-17T17:23:22.164Z,99666.17
2023-02-17T17:25:50.452Z,99662.39
2023-02-17T17:28:19.103Z,99655.23
2023-02-17T17:30:47.531Z,99649.99
2023-02-17T17:33:16.335Z,99648.45
2023-02-17T17:35:44.650Z,99641.43
2023-02-17T17:38:14.219Z,99637.98
2023-02-17T17:40:53.553Z,99635.30
2023-02-17T17:43:23.409Z,99633.20
2023-02-17T17:45:54.468Z,99631.65
2023-02-17T17:48:24.110Z,99631.36
2023-02-17T17:50:52.818Z,99622.79
2023-02-17T17:53:22.317Z,99620.86
2023-02-17T17:55:50.610Z,99617.98
2023-02-17T17:58:19.081Z,99621.52
2023-02-17T18:00:51.771Z,99618.48
2023-02-17T18:03:20.392Z,99610.85
2023-02-17T18:05:49.589Z,99608.25
2023-02-17T18:08:19.112Z,99607.11
2023-02-17T18:10:47.276Z,99605.58
2023-02-17T18:13:16.593Z,99608.91
2023-02-17T18:15:46.017Z,99598.70
2023-02-17T18:18:15.299Z,99586.98
2023-02-17T18:20:44.378Z,99585.05
2023-02-17T18:23:12.783Z,99582.90
2023-02-17T18:25:41.346Z,99571.58
2023-02-17T18:28:09.646Z,99567.25
2023-02-17T18:30:37.830Z,99558.64
2023-02-17T18:33:07.828Z,99562.05
2023-02-17T18:35:37.692Z,99564.75
2023-02-17T18:38:06.227Z,99566.97
2023-02-17T18:40:38.051Z,99565.89
2023-02-17T18:43:06.879Z,99560.58
2023-02-17T18:45:35.114Z,99552.30
2023-02-17T18:48:03.356Z,99549.92
2023-02-17T18:50:34.081Z,99554.73
2023-02-17T18:53:05.363Z,99551.25
2023-02-17T18:55:37.092Z,99546.64
2023-02-17T18:58:05.716Z,99541.08
2023-02-17T19:00:33.919Z,99537.26
2023-02-17T19:03:05.983Z,99538.54
2023-02-17T19:05:34.577Z,99534.63
2023-02-17T19:08:08.735Z,99528.55
2023-02-17T19:10:36.991Z,99530.10
2023-02-17T19:13:06.188Z,99534.66
2023-02-17T19:15:34.525Z,99538.20
2023-02-17T19:18:02.698Z,99535.98
2023-02-17T19:20:33.762Z,99536.23
2023-02-17T19:23:02.622Z,99527.92
2023-02-17T19:25:31.198Z,99525.30
2023-02-17T19:27:59.460Z,99527.36
2023-02-17T19:30:28.481Z,99520.55
2023-02-17T19:32:56.706Z,99516.67
2023-02-17T19:35:27.279Z,99514.11
2023-02-17T19:37:56.165Z,99510.25
2023-02-17T19:40:24.612Z,99498.50
2023-02-17T19:42:55.447Z,99490.59
2023-02-17T19:45:23.856Z,99489.14
2023-02-17T19:47:52.156Z,99485.22
2023-02-17T19:50:20.518Z,99470.55
2023-02-17T19:52:49.018Z,99464.35
2023-02-17T19:55:17.233Z,99468.80
2023-02-17T19:57:45.860Z,99470.69
2023-02-17T20:00:14.820Z,99467.80
2023-02-17T20:02:43.265Z,99464.87
2023-02-17T20:05:12.324Z,99458.34
2023-02-17T20:07:41.076Z,99456.96
2023-02-17T20:10:14.887Z,99451.52
2023-02-17T20:12:44.522Z,99444.63
2023-02-17T20:15:12.646Z,99440.69
2023-02-17T20:17:41.553Z,99431.04
2023-02-17T20:20:11.220Z,99427.77
2023-02-17T20:22:40.116Z,99429.23
2023-02-17T20:25:08.754Z,99424.46
2023-02-17T20:27:37.082Z,99421.69
2023-02-17T20:30:07.131Z,99418.18
2023-02-17T20:32:36.150Z,99405.23
2023-02-17T20:35:05.179Z,99404.27
2023-02-17T20:37:34.015Z,99397.50
2023-02-17T20:40:04.001Z,99394.35
2023-02-17T20:42:33.522Z,99391.63
2023-02-17T20:45:01.847Z,99391.59
2023-02-17T20:47:30.201Z,99388.30
2023-02-17T20:49:59.039Z,99386.09
2023-02-17T20:52:28.021Z,99380.88
2023-02-17T20:54:57.299Z,99375.09
2023-02-17T20:57:26.080Z,99368.65
2023-02-17T20:59:54.261Z,99363.45
2023-02-17T21:02:26.587Z,99357.64
2023-02-17T21:04:54.945Z,99348.71
2023-02-17T21:07:23.506Z,99341.45
2023-02-17T21:09:54.499Z,99338.80
2023-02-17T21:12:22.994Z,99336.01
2023-02-17T21:14:52.245Z,99324.83
2023-02-17T21:17:20.978Z,99313.44
2023-02-17T21:19:50.890Z,99308.63
2023-02-17T21:22:20.020Z,99296.73
2023-02-17T21:24:49.599Z,99294.83
2023-02-17T21:27:18.408Z,99288.55
2023-02-17T21:29:46.555Z,99285.70
2023-02-17T21:32:15.097Z,99285.38
2023-02-17T21:34:43.542Z,99270.16
2023-02-17T21:37:11.863Z,99266.02
2023-02-17T21:39:40.256Z,99256.66
2023-02-17T21:42:08.646Z,99254.13
2023-02-17T21:44:52.894Z,99253.16
2023-02-17T21:47:21.401Z,99244.71
2023-02-17T21:49:53.198Z,99240.35
2023-02-17T21:52:22.057Z,99244.95
2023-02-17T21:54:51.910Z,99240.98
2023-02-17T21:57:20.294Z,99236.36
2023-02-17T21:59:53.862Z,99231.96
2023-02-17T22:02:24.463Z,99227.52
2023-02-17T22:04:56.542Z,99221.41
2023-02-17T22:07:25.186Z,99216.33
2023-02-17T22:09:53.426Z,99211.96
2023-02-17T22:12:21.474Z,99205.23
2023-02-17T22:14:49.811Z,99197.46
2023-02-17T22:17:22.030Z,99191.96
2023-02-17T22:19:50.190Z,99183.30
2023-02-17T22:22:18.278Z,99182.20
2023-02-17T22:24:46.410Z,99176.91
2023-02-17T22:27:14.734Z,99184.41
2023-02-17T22:29:42.953Z,99180.59
2023-02-17T22:32:11.103Z,99175.44
2023-02-17T22:34:39.477Z,99175.02
2023-02-17T22:37:07.769Z,99175.45
2023-02-17T22:39:36.705Z,99177.16
2023-02-17T22:42:04.871Z,99173.16
2023-02-17T22:44:33.058Z,99170.76
2023-02-17T22:47:01.333Z,99171.61
2023-02-17T22:49:29.475Z,99165.73
2023-02-17T22:51:58.792Z,99160.13
2023-02-17T22:54:27.450Z,99153.45
2023-02-17T22:56:55.498Z,99148.58
2023-02-17T22:59:24.262Z,99144.88
2023-02-17T23:01:52.885Z,99142.38
2023-02-17T23:04:21.889Z,99141.67
2023-02-17T23:06:50.030Z,99144.67
2023-02-17T23:09:19.007Z,99143.36
2023-02-17T23:11:50.369Z,99140.23
2023-02-17T23:14:40.302Z,99142.14
2023-02-17T23:17:11.417Z,99137.48
2023-02-17T23:19:42.868Z,99132.41
2023-02-17T23:22:16.027Z,99127.55
2023-02-17T23:24:47.541Z,99119.89
2023-02-17T23:27:15.950Z,99116.25
2023-02-17T23:29:44.013Z,99109.36
2023-02-17T23:32:12.394Z,99108.96
2023-02-17T23:34:41.778Z,99098.46
2023-02-17T23:37:09.824Z,99094.27
2023-02-17T23:39:38.275Z,99092.91
2023-02-17T23:42:08.799Z,99091.81
2023-02-17T23:44:38.442Z,99083.98
2023-02-17T23:47:06.519Z,99074.15
2023-02-17T23:49:35.272Z,99073.61
2023-02-17T23:52:03.518Z,99063.49
2023-02-17T23:54:33.937Z,99055.80
2023-02-17T23:57:02.114Z,99051.06
2023-02-17T23:59:30.429Z,99039.52
